sensor_id;sensor_type;location;lat;lon;timestamp;temperature;humidity
11855;DHT22;5987;53.140;8.904;2022-12-07T00:01:19;5.10;99.90
11855;DHT22;5987;53.140;8.904;2022-12-07T00:04:24;5.00;99.90
11855;DHT22;5987;53.140;8.904;2022-12-07T00:07:28;4.80;99.90
11855;DHT22;5987;53.140;8.904;2022-12-07T00:10:33;4.80;99.90
11855;DHT22;5987;53.140;8.904;2022-12-07T00:13:37;4.70;99.90
11855;DHT22;5987;53.140;8.904;2022-12-07T00:16:43;4.60;99.90
11855;DHT22;5987;53.140;8.904;2022-12-07T00:19:47;4.60;99.90
11855;DHT22;5987;53.140;8.904;2022-12-07T00:22:51;4.50;99.90
11855;DHT22;5987;53.140;8.904;2022-12-07T00:25:54;4.40;99.90
11855;DHT22;5987;53.140;8.904;2022-12-07T00:29:00;4.30;99.90
11855;DHT22;5987;53.140;8.904;2022-12-07T00:32:07;4.30;99.90
11855;DHT22;5987;53.140;8.904;2022-12-07T00:35:11;4.30;99.90
11855;DHT22;5987;53.140;8.904;2022-12-07T00:38:14;4.20;99.90
11855;DHT22;5987;53.140;8.904;2022-12-07T00:41:19;4.20;99.90
11855;DHT22;5987;53.140;8.904;2022-12-07T00:44:24;4.20;99.90
11855;DHT22;5987;53.140;8.904;2022-12-07T00:47:29;4.30;99.90
11855;DHT22;5987;53.140;8.904;2022-12-07T00:50:33;4.30;99.90
11855;DHT22;5987;53.140;8.904;2022-12-07T00:53:37;4.30;99.90
11855;DHT22;5987;53.140;8.904;2022-12-07T00:56:43;4.30;99.90
11855;DHT22;5987;53.140;8.904;2022-12-07T00:59:46;4.20;99.90
11855;DHT22;5987;53.140;8.904;2022-12-07T01:02:52;4.20;99.90
11855;DHT22;5987;53.140;8.904;2022-12-07T01:05:57;4.20;99.90
11855;DHT22;5987;53.140;8.904;2022-12-07T01:09:01;4.20;99.90
11855;DHT22;5987;53.140;8.904;2022-12-07T01:12:06;4.30;99.90
11855;DHT22;5987;53.140;8.904;2022-12-07T01:15:24;4.20;99.90
11855;DHT22;5987;53.140;8.904;2022-12-07T01:18:31;4.20;99.90
11855;DHT22;5987;53.140;8.904;2022-12-07T01:21:38;4.20;99.90
11855;DHT22;5987;53.140;8.904;2022-12-07T01:24:42;4.20;99.90
11855;DHT22;5987;53.140;8.904;2022-12-07T01:27:45;4.20;99.90
11855;DHT22;5987;53.140;8.904;2022-12-07T01:30:56;4.20;99.90
11855;DHT22;5987;53.140;8.904;2022-12-07T01:34:02;4.20;99.90
11855;DHT22;5987;53.140;8.904;2022-12-07T01:37:05;4.20;99.90
11855;DHT22;5987;53.140;8.904;2022-12-07T01:40:11;4.10;99.90
11855;DHT22;5987;53.140;8.904;2022-12-07T01:43:23;4.10;99.90
11855;DHT22;5987;53.140;8.904;2022-12-07T01:46:28;4.10;99.90
11855;DHT22;5987;53.140;8.904;2022-12-07T01:49:36;4.10;99.90
11855;DHT22;5987;53.140;8.904;2022-12-07T01:52:42;4.00;99.90
11855;DHT22;5987;53.140;8.904;2022-12-07T01:55:51;4.00;99.90
11855;DHT22;5987;53.140;8.904;2022-12-07T01:58:57;4.10;99.90
11855;DHT22;5987;53.140;8.904;2022-12-07T02:02:07;4.00;99.90
11855;DHT22;5987;53.140;8.904;2022-12-07T02:05:18;4.00;99.90
11855;DHT22;5987;53.140;8.904;2022-12-07T02:08:22;4.00;99.90
11855;DHT22;5987;53.140;8.904;2022-12-07T02:11:27;4.00;99.90
11855;DHT22;5987;53.140;8.904;2022-12-07T02:14:31;4.00;99.90
11855;DHT22;5987;53.140;8.904;2022-12-07T02:17:42;4.00;99.90
11855;DHT22;5987;53.140;8.904;2022-12-07T02:20:58;4.00;99.90
11855;DHT22;5987;53.140;8.904;2022-12-07T02:24:24;3.90;99.90
11855;DHT22;5987;53.140;8.904;2022-12-07T02:27:45;3.90;99.90
11855;DHT22;5987;53.140;8.904;2022-12-07T02:30:52;3.90;99.90
11855;DHT22;5987;53.140;8.904;2022-12-07T02:34:07;3.80;99.90
11855;DHT22;5987;53.140;8.904;2022-12-07T02:37:23;3.80;99.90
11855;DHT22;5987;53.140;8.904;2022-12-07T02:40:39;3.80;99.90
11855;DHT22;5987;53.140;8.904;2022-12-07T02:43:51;3.80;99.90
11855;DHT22;5987;53.140;8.904;2022-12-07T02:47:03;3.80;99.90
11855;DHT22;5987;53.140;8.904;2022-12-07T02:50:11;3.70;99.90
11855;DHT22;5987;53.140;8.904;2022-12-07T02:53:32;3.70;99.90
11855;DHT22;5987;53.140;8.904;2022-12-07T02:56:41;3.70;99.90
11855;DHT22;5987;53.140;8.904;2022-12-07T03:00:00;3.70;99.90
11855;DHT22;5987;53.140;8.904;2022-12-07T03:03:10;3.60;99.90
11855;DHT22;5987;53.140;8.904;2022-12-07T03:06:20;3.70;99.90
11855;DHT22;5987;53.140;8.904;2022-12-07T03:09:35;3.70;99.90
11855;DHT22;5987;53.140;8.904;2022-12-07T03:12:56;3.70;99.90
11855;DHT22;5987;53.140;8.904;2022-12-07T03:16:09;3.70;99.90
11855;DHT22;5987;53.140;8.904;2022-12-07T03:19:21;3.80;99.90
11855;DHT22;5987;53.140;8.904;2022-12-07T03:22:30;3.80;99.90
11855;DHT22;5987;53.140;8.904;2022-12-07T03:25:39;3.80;99.90
11855;DHT22;5987;53.140;8.904;2022-12-07T03:28:50;3.80;99.90
11855;DHT22;5987;53.140;8.904;2022-12-07T03:31:59;3.80;99.90
11855;DHT22;5987;53.140;8.904;2022-12-07T03:35:11;3.80;99.90
11855;DHT22;5987;53.140;8.904;2022-12-07T03:38:23;3.80;99.90
11855;DHT22;5987;53.140;8.904;2022-12-07T03:41:33;3.80;99.90
11855;DHT22;5987;53.140;8.904;2022-12-07T03:44:46;3.90;99.90
11855;DHT22;5987;53.140;8.904;2022-12-07T03:47:54;3.90;99.90
11855;DHT22;5987;53.140;8.904;2022-12-07T03:51:14;3.90;99.90
11855;DHT22;5987;53.140;8.904;2022-12-07T03:54:28;3.90;99.90
11855;DHT22;5987;53.140;8.904;2022-12-07T03:57:38;3.90;99.90
11855;DHT22;5987;53.140;8.904;2022-12-07T04:00:45;4.00;99.90
11855;DHT22;5987;53.140;8.904;2022-12-07T04:03:49;4.00;99.90
11855;DHT22;5987;53.140;8.904;2022-12-07T04:06:54;4.00;99.90
11855;DHT22;5987;53.140;8.904;2022-12-07T04:09:58;4.00;99.90
11855;DHT22;5987;53.140;8.904;2022-12-07T04:13:02;4.00;99.90
11855;DHT22;5987;53.140;8.904;2022-12-07T04:16:06;4.00;99.90
11855;DHT22;5987;53.140;8.904;2022-12-07T04:19:10;4.00;99.90
11855;DHT22;5987;53.140;8.904;2022-12-07T04:22:15;3.90;99.90
11855;DHT22;5987;53.140;8.904;2022-12-07T04:25:19;3.90;99.90
11855;DHT22;5987;53.140;8.904;2022-12-07T04:28:22;3.90;99.90
11855;DHT22;5987;53.140;8.904;2022-12-07T04:31:26;3.90;99.90
11855;DHT22;5987;53.140;8.904;2022-12-07T04:34:30;3.90;99.90
11855;DHT22;5987;53.140;8.904;2022-12-07T04:37:35;3.90;99.90
11855;DHT22;5987;53.140;8.904;2022-12-07T04:40:41;3.90;99.90
11855;DHT22;5987;53.140;8.904;2022-12-07T04:43:44;4.00;99.90
11855;DHT22;5987;53.140;8.904;2022-12-07T04:46:49;4.00;99.90
11855;DHT22;5987;53.140;8.904;2022-12-07T04:49:53;4.00;99.90
11855;DHT22;5987;53.140;8.904;2022-12-07T04:52:58;4.00;99.90
11855;DHT22;5987;53.140;8.904;2022-12-07T04:56:02;4.10;99.90
11855;DHT22;5987;53.140;8.904;2022-12-07T04:59:06;4.10;99.90
11855;DHT22;5987;53.140;8.904;2022-12-07T05:02:10;4.10;99.90
11855;DHT22;5987;53.140;8.904;2022-12-07T05:05:14;4.30;99.90
11855;DHT22;5987;53.140;8.904;2022-12-07T05:08:19;4.10;99.90
11855;DHT22;5987;53.140;8.904;2022-12-07T05:11:23;4.20;99.90
11855;DHT22;5987;53.140;8.904;2022-12-07T05:14:42;4.10;99.90
11855;DHT22;5987;53.140;8.904;2022-12-07T05:17:46;4.00;99.90
11855;DHT22;5987;53.140;8.904;2022-12-07T05:20:49;4.00;99.90
11855;DHT22;5987;53.140;8.904;2022-12-07T05:23:55;4.00;99.90
11855;DHT22;5987;53.140;8.904;2022-12-07T05:26:58;3.90;99.90
11855;DHT22;5987;53.140;8.904;2022-12-07T05:30:03;3.90;99.90
11855;DHT22;5987;53.140;8.904;2022-12-07T05:33:07;3.90;99.90
11855;DHT22;5987;53.140;8.904;2022-12-07T05:36:11;3.80;99.90
11855;DHT22;5987;53.140;8.904;2022-12-07T05:39:17;3.80;99.90
11855;DHT22;5987;53.140;8.904;2022-12-07T05:42:20;3.80;99.90
11855;DHT22;5987;53.140;8.904;2022-12-07T05:45:24;3.80;99.90
11855;DHT22;5987;53.140;8.904;2022-12-07T05:48:28;3.80;99.90
11855;DHT22;5987;53.140;8.904;2022-12-07T05:51:31;3.80;99.90
11855;DHT22;5987;53.140;8.904;2022-12-07T05:54:52;3.80;99.90
11855;DHT22;5987;53.140;8.904;2022-12-07T05:58:11;4.10;99.90
11855;DHT22;5987;53.140;8.904;2022-12-07T06:01:32;3.70;99.90
11855;DHT22;5987;53.140;8.904;2022-12-07T06:04:37;3.80;99.90
11855;DHT22;5987;53.140;8.904;2022-12-07T06:07:43;3.70;99.90
11855;DHT22;5987;53.140;8.904;2022-12-07T06:10:48;3.70;99.90
11855;DHT22;5987;53.140;8.904;2022-12-07T06:14:13;3.70;99.90
11855;DHT22;5987;53.140;8.904;2022-12-07T06:17:16;3.70;99.90
11855;DHT22;5987;53.140;8.904;2022-12-07T06:20:20;3.70;99.90
11855;DHT22;5987;53.140;8.904;2022-12-07T06:23:24;3.70;99.90
11855;DHT22;5987;53.140;8.904;2022-12-07T06:26:29;3.60;99.90
11855;DHT22;5987;53.140;8.904;2022-12-07T06:29:32;3.60;99.90
11855;DHT22;5987;53.140;8.904;2022-12-07T06:32:36;3.60;99.90
11855;DHT22;5987;53.140;8.904;2022-12-07T06:35:41;3.70;99.90
11855;DHT22;5987;53.140;8.904;2022-12-07T06:38:45;3.70;99.90
11855;DHT22;5987;53.140;8.904;2022-12-07T06:41:50;3.70;99.90
11855;DHT22;5987;53.140;8.904;2022-12-07T06:44:55;3.80;99.90
11855;DHT22;5987;53.140;8.904;2022-12-07T06:47:59;3.80;99.90
11855;DHT22;5987;53.140;8.904;2022-12-07T06:51:04;3.80;99.90
11855;DHT22;5987;53.140;8.904;2022-12-07T06:54:08;3.70;99.90
11855;DHT22;5987;53.140;8.904;2022-12-07T06:57:13;3.80;99.90
11855;DHT22;5987;53.140;8.904;2022-12-07T07:00:17;3.60;99.90
11855;DHT22;5987;53.140;8.904;2022-12-07T07:03:23;3.70;99.90
11855;DHT22;5987;53.140;8.904;2022-12-07T07:06:28;3.70;99.90
11855;DHT22;5987;53.140;8.904;2022-12-07T07:09:31;3.70;99.90
11855;DHT22;5987;53.140;8.904;2022-12-07T07:12:36;3.60;99.90
11855;DHT22;5987;53.140;8.904;2022-12-07T07:15:40;3.60;99.90
11855;DHT22;5987;53.140;8.904;2022-12-07T07:18:44;3.60;99.90
11855;DHT22;5987;53.140;8.904;2022-12-07T07:21:48;3.60;99.90
11855;DHT22;5987;53.140;8.904;2022-12-07T07:24:51;3.60;99.90
11855;DHT22;5987;53.140;8.904;2022-12-07T07:27:56;3.60;99.90
11855;DHT22;5987;53.140;8.904;2022-12-07T07:31:01;3.60;99.90
11855;DHT22;5987;53.140;8.904;2022-12-07T07:34:05;3.60;99.90
11855;DHT22;5987;53.140;8.904;2022-12-07T07:37:10;3.60;99.90
11855;DHT22;5987;53.140;8.904;2022-12-07T07:40:22;3.60;99.90
11855;DHT22;5987;53.140;8.904;2022-12-07T07:43:28;3.60;99.90
11855;DHT22;5987;53.140;8.904;2022-12-07T07:46:31;3.60;99.90
11855;DHT22;5987;53.140;8.904;2022-12-07T07:49:35;3.50;99.90
11855;DHT22;5987;53.140;8.904;2022-12-07T07:52:46;3.50;99.90
11855;DHT22;5987;53.140;8.904;2022-12-07T07:55:53;3.60;99.90
11855;DHT22;5987;53.140;8.904;2022-12-07T07:58:58;3.60;99.90
11855;DHT22;5987;53.140;8.904;2022-12-07T08:02:02;3.60;99.90
11855;DHT22;5987;53.140;8.904;2022-12-07T08:05:07;3.60;99.90
11855;DHT22;5987;53.140;8.904;2022-12-07T08:08:11;3.60;99.90
11855;DHT22;5987;53.140;8.904;2022-12-07T08:11:15;3.60;99.90
11855;DHT22;5987;53.140;8.904;2022-12-07T08:14:21;3.70;99.90
11855;DHT22;5987;53.140;8.904;2022-12-07T08:17:25;3.70;99.90
11855;DHT22;5987;53.140;8.904;2022-12-07T08:20:30;3.70;99.90
11855;DHT22;5987;53.140;8.904;2022-12-07T08:23:35;3.70;99.90
11855;DHT22;5987;53.140;8.904;2022-12-07T08:26:41;3.80;99.90
11855;DHT22;5987;53.140;8.904;2022-12-07T08:29:46;3.80;99.90
11855;DHT22;5987;53.140;8.904;2022-12-07T08:32:49;3.80;99.90
11855;DHT22;5987;53.140;8.904;2022-12-07T08:35:53;3.80;99.90
11855;DHT22;5987;53.140;8.904;2022-12-07T08:38:57;3.80;99.90
11855;DHT22;5987;53.140;8.904;2022-12-07T08:42:21;3.80;99.90
11855;DHT22;5987;53.140;8.904;2022-12-07T08:45:31;3.80;99.90
11855;DHT22;5987;53.140;8.904;2022-12-07T08:48:42;3.90;99.90
11855;DHT22;5987;53.140;8.904;2022-12-07T08:51:50;3.90;99.90
11855;DHT22;5987;53.140;8.904;2022-12-07T08:54:54;3.80;99.90
11855;DHT22;5987;53.140;8.904;2022-12-07T08:57:57;3.80;99.90
11855;DHT22;5987;53.140;8.904;2022-12-07T09:01:03;3.80;99.90
11855;DHT22;5987;53.140;8.904;2022-12-07T09:04:09;3.90;99.90
11855;DHT22;5987;53.140;8.904;2022-12-07T09:07:13;3.90;99.90
11855;DHT22;5987;53.140;8.904;2022-12-07T09:10:17;4.00;99.90
11855;DHT22;5987;53.140;8.904;2022-12-07T09:13:21;4.00;99.90
11855;DHT22;5987;53.140;8.904;2022-12-07T09:16:26;4.10;99.90
11855;DHT22;5987;53.140;8.904;2022-12-07T09:19:30;4.10;99.90
11855;DHT22;5987;53.140;8.904;2022-12-07T09:22:34;4.10;99.90
11855;DHT22;5987;53.140;8.904;2022-12-07T09:25:37;4.20;99.90
11855;DHT22;5987;53.140;8.904;2022-12-07T09:28:41;4.20;99.90
11855;DHT22;5987;53.140;8.904;2022-12-07T09:31:46;4.20;99.90
11855;DHT22;5987;53.140;8.904;2022-12-07T09:34:50;4.20;99.90
11855;DHT22;5987;53.140;8.904;2022-12-07T09:37:54;4.30;99.90
11855;DHT22;5987;53.140;8.904;2022-12-07T09:40:57;4.40;99.90
11855;DHT22;5987;53.140;8.904;2022-12-07T09:44:11;4.50;99.90
11855;DHT22;5987;53.140;8.904;2022-12-07T09:47:18;4.60;99.90
11855;DHT22;5987;53.140;8.904;2022-12-07T09:50:24;4.70;99.90
11855;DHT22;5987;53.140;8.904;2022-12-07T09:53:33;4.80;99.90
11855;DHT22;5987;53.140;8.904;2022-12-07T09:56:40;4.80;99.90
11855;DHT22;5987;53.140;8.904;2022-12-07T09:59:44;4.80;99.90
11855;DHT22;5987;53.140;8.904;2022-12-07T10:02:52;4.80;99.90
11855;DHT22;5987;53.140;8.904;2022-12-07T10:05:58;4.80;99.90
11855;DHT22;5987;53.140;8.904;2022-12-07T10:09:08;4.80;99.90
11855;DHT22;5987;53.140;8.904;2022-12-07T10:12:13;4.90;99.90
11855;DHT22;5987;53.140;8.904;2022-12-07T10:15:23;5.00;99.90
11855;DHT22;5987;53.140;8.904;2022-12-07T10:18:30;5.20;99.90
11855;DHT22;5987;53.140;8.904;2022-12-07T10:21:35;5.40;99.90
11855;DHT22;5987;53.140;8.904;2022-12-07T10:24:40;5.50;99.90
11855;DHT22;5987;53.140;8.904;2022-12-07T10:27:57;5.30;99.90
11855;DHT22;5987;53.140;8.904;2022-12-07T10:31:15;5.20;99.90
11855;DHT22;5987;53.140;8.904;2022-12-07T10:34:26;5.10;99.90
11855;DHT22;5987;53.140;8.904;2022-12-07T10:37:40;5.00;99.90
11855;DHT22;5987;53.140;8.904;2022-12-07T10:40:44;5.00;99.90
11855;DHT22;5987;53.140;8.904;2022-12-07T10:43:50;5.00;99.90
11855;DHT22;5987;53.140;8.904;2022-12-07T10:47:12;5.10;99.90
11855;DHT22;5987;53.140;8.904;2022-12-07T10:51:00;5.10;99.90
11855;DHT22;5987;53.140;8.904;2022-12-07T10:54:18;5.20;99.90
11855;DHT22;5987;53.140;8.904;2022-12-07T10:57:39;5.20;99.90
11855;DHT22;5987;53.140;8.904;2022-12-07T11:00:56;5.30;99.90
11855;DHT22;5987;53.140;8.904;2022-12-07T11:04:16;5.40;99.90
11855;DHT22;5987;53.140;8.904;2022-12-07T11:07:38;5.40;99.90
11855;DHT22;5987;53.140;8.904;2022-12-07T11:11:02;5.50;99.90
11855;DHT22;5987;53.140;8.904;2022-12-07T11:14:20;5.60;99.90
11855;DHT22;5987;53.140;8.904;2022-12-07T11:17:36;5.60;99.90
11855;DHT22;5987;53.140;8.904;2022-12-07T11:20:52;5.50;99.90
11855;DHT22;5987;53.140;8.904;2022-12-07T11:24:06;5.50;99.90
11855;DHT22;5987;53.140;8.904;2022-12-07T11:27:24;5.40;99.90
11855;DHT22;5987;53.140;8.904;2022-12-07T11:30:45;5.40;99.90
11855;DHT22;5987;53.140;8.904;2022-12-07T11:34:04;5.50;99.90
11855;DHT22;5987;53.140;8.904;2022-12-07T11:37:15;5.50;99.90
11855;DHT22;5987;53.140;8.904;2022-12-07T11:40:26;5.60;99.90
11855;DHT22;5987;53.140;8.904;2022-12-07T11:43:36;5.60;99.90
11855;DHT22;5987;53.140;8.904;2022-12-07T11:46:46;5.60;99.90
11855;DHT22;5987;53.140;8.904;2022-12-07T11:49:55;5.60;99.90
11855;DHT22;5987;53.140;8.904;2022-12-07T11:53:14;5.60;99.90
11855;DHT22;5987;53.140;8.904;2022-12-07T11:56:23;5.70;99.90
11855;DHT22;5987;53.140;8.904;2022-12-07T11:59:36;5.60;99.90
11855;DHT22;5987;53.140;8.904;2022-12-07T12:02:48;5.50;99.90
11855;DHT22;5987;53.140;8.904;2022-12-07T12:05:56;5.10;99.90
11855;DHT22;5987;53.140;8.904;2022-12-07T12:09:05;4.90;99.90
11855;DHT22;5987;53.140;8.904;2022-12-07T12:12:50;4.80;99.90
11855;DHT22;5987;53.140;8.904;2022-12-07T12:16:51;4.80;99.90
11855;DHT22;5987;53.140;8.904;2022-12-07T12:20:19;5.00;99.90
11855;DHT22;5987;53.140;8.904;2022-12-07T12:23:35;5.00;99.90
11855;DHT22;5987;53.140;8.904;2022-12-07T12:26:49;5.10;99.90
11855;DHT22;5987;53.140;8.904;2022-12-07T12:30:00;5.00;99.90
11855;DHT22;5987;53.140;8.904;2022-12-07T12:33:14;5.00;99.90
11855;DHT22;5987;53.140;8.904;2022-12-07T12:36:45;5.00;99.90
11855;DHT22;5987;53.140;8.904;2022-12-07T12:43:54;4.90;99.90
11855;DHT22;5987;53.140;8.904;2022-12-07T12:47:00;4.80;99.90
11855;DHT22;5987;53.140;8.904;2022-12-07T12:50:15;4.40;99.90
11855;DHT22;5987;53.140;8.904;2022-12-07T12:53:23;4.10;99.90
11855;DHT22;5987;53.140;8.904;2022-12-07T12:56:36;4.00;99.90
11855;DHT22;5987;53.140;8.904;2022-12-07T12:59:57;4.00;99.90
11855;DHT22;5987;53.140;8.904;2022-12-07T13:03:04;4.10;99.90
11855;DHT22;5987;53.140;8.904;2022-12-07T13:06:18;4.10;99.90
11855;DHT22;5987;53.140;8.904;2022-12-07T13:09:34;4.20;99.90
11855;DHT22;5987;53.140;8.904;2022-12-07T13:12:39;4.20;99.90
11855;DHT22;5987;53.140;8.904;2022-12-07T13:15:45;4.20;99.90
11855;DHT22;5987;53.140;8.904;2022-12-07T13:18:55;4.20;99.90
11855;DHT22;5987;53.140;8.904;2022-12-07T13:21:59;4.20;99.90
11855;DHT22;5987;53.140;8.904;2022-12-07T13:25:07;4.30;99.90
11855;DHT22;5987;53.140;8.904;2022-12-07T13:28:16;4.30;99.90
11855;DHT22;5987;53.140;8.904;2022-12-07T13:31:40;4.30;99.90
11855;DHT22;5987;53.140;8.904;2022-12-07T13:34:47;4.40;99.90
11855;DHT22;5987;53.140;8.904;2022-12-07T13:37:50;4.30;99.90
11855;DHT22;5987;53.140;8.904;2022-12-07T13:41:02;4.40;99.90
11855;DHT22;5987;53.140;8.904;2022-12-07T13:44:10;4.40;99.90
11855;DHT22;5987;53.140;8.904;2022-12-07T13:47:18;4.50;99.90
11855;DHT22;5987;53.140;8.904;2022-12-07T13:50:32;4.50;99.90
11855;DHT22;5987;53.140;8.904;2022-12-07T13:53:46;4.50;99.90
11855;DHT22;5987;53.140;8.904;2022-12-07T13:56:52;4.50;99.90
11855;DHT22;5987;53.140;8.904;2022-12-07T13:59:56;4.50;99.90
11855;DHT22;5987;53.140;8.904;2022-12-07T14:03:03;4.50;99.90
11855;DHT22;5987;53.140;8.904;2022-12-07T14:06:27;4.60;99.90
11855;DHT22;5987;53.140;8.904;2022-12-07T14:09:31;4.70;99.90
11855;DHT22;5987;53.140;8.904;2022-12-07T14:12:36;4.60;99.90
11855;DHT22;5987;53.140;8.904;2022-12-07T14:15:40;4.60;99.90
11855;DHT22;5987;53.140;8.904;2022-12-07T14:18:44;4.60;99.90
11855;DHT22;5987;53.140;8.904;2022-12-07T14:22:06;4.50;99.90
11855;DHT22;5987;53.140;8.904;2022-12-07T14:25:20;4.30;99.90
11855;DHT22;5987;53.140;8.904;2022-12-07T14:28:27;4.20;99.90
11855;DHT22;5987;53.140;8.904;2022-12-07T14:31:32;4.40;99.90
11855;DHT22;5987;53.140;8.904;2022-12-07T14:34:36;4.10;99.90
11855;DHT22;5987;53.140;8.904;2022-12-07T14:37:44;4.00;99.90
11855;DHT22;5987;53.140;8.904;2022-12-07T14:40:49;4.00;99.90
11855;DHT22;5987;53.140;8.904;2022-12-07T14:43:53;4.00;99.90
11855;DHT22;5987;53.140;8.904;2022-12-07T14:47:17;3.90;99.90
11855;DHT22;5987;53.140;8.904;2022-12-07T14:50:44;3.80;99.90
11855;DHT22;5987;53.140;8.904;2022-12-07T14:54:16;3.70;99.90
11855;DHT22;5987;53.140;8.904;2022-12-07T14:57:23;3.70;99.90
11855;DHT22;5987;53.140;8.904;2022-12-07T15:00:28;3.70;99.90
11855;DHT22;5987;53.140;8.904;2022-12-07T15:03:32;3.60;99.90
11855;DHT22;5987;53.140;8.904;2022-12-07T15:06:37;3.50;99.90
11855;DHT22;5987;53.140;8.904;2022-12-07T15:09:42;3.40;99.90
11855;DHT22;5987;53.140;8.904;2022-12-07T15:12:46;3.20;99.90
11855;DHT22;5987;53.140;8.904;2022-12-07T15:15:51;3.20;99.90
11855;DHT22;5987;53.140;8.904;2022-12-07T15:18:56;3.20;99.90
11855;DHT22;5987;53.140;8.904;2022-12-07T15:22:20;3.20;99.90
11855;DHT22;5987;53.140;8.904;2022-12-07T15:25:25;3.20;99.90
11855;DHT22;5987;53.140;8.904;2022-12-07T15:28:29;3.10;99.90
11855;DHT22;5987;53.140;8.904;2022-12-07T15:31:33;3.10;99.90
11855;DHT22;5987;53.140;8.904;2022-12-07T15:34:57;3.00;99.90
11855;DHT22;5987;53.140;8.904;2022-12-07T15:38:01;3.00;99.90
11855;DHT22;5987;53.140;8.904;2022-12-07T15:41:07;2.90;99.90
11855;DHT22;5987;53.140;8.904;2022-12-07T15:44:11;2.90;99.90
11855;DHT22;5987;53.140;8.904;2022-12-07T15:47:35;3.00;99.90
11855;DHT22;5987;53.140;8.904;2022-12-07T15:51:02;2.90;99.90
11855;DHT22;5987;53.140;8.904;2022-12-07T15:54:13;2.80;99.90
11855;DHT22;5987;53.140;8.904;2022-12-07T15:57:22;2.90;99.90
11855;DHT22;5987;53.140;8.904;2022-12-07T16:00:26;2.90;99.90
11855;DHT22;5987;53.140;8.904;2022-12-07T16:03:30;2.90;99.90
11855;DHT22;5987;53.140;8.904;2022-12-07T16:06:34;3.00;99.90
11855;DHT22;5987;53.140;8.904;2022-12-07T16:09:38;3.00;99.90
11855;DHT22;5987;53.140;8.904;2022-12-07T16:12:43;3.00;99.90
11855;DHT22;5987;53.140;8.904;2022-12-07T16:15:47;3.10;99.90
11855;DHT22;5987;53.140;8.904;2022-12-07T16:18:52;3.10;99.90
11855;DHT22;5987;53.140;8.904;2022-12-07T16:21:56;3.10;99.90
11855;DHT22;5987;53.140;8.904;2022-12-07T16:25:00;3.20;99.90
11855;DHT22;5987;53.140;8.904;2022-12-07T16:28:06;3.20;99.90
11855;DHT22;5987;53.140;8.904;2022-12-07T16:31:12;3.20;99.90
11855;DHT22;5987;53.140;8.904;2022-12-07T16:34:17;3.20;99.90
11855;DHT22;5987;53.140;8.904;2022-12-07T16:37:21;3.30;99.90
11855;DHT22;5987;53.140;8.904;2022-12-07T16:40:25;3.30;99.90
11855;DHT22;5987;53.140;8.904;2022-12-07T16:43:30;3.30;99.90
11855;DHT22;5987;53.140;8.904;2022-12-07T16:46:35;3.30;99.90
11855;DHT22;5987;53.140;8.904;2022-12-07T16:49:39;3.30;99.90
11855;DHT22;5987;53.140;8.904;2022-12-07T16:52:43;3.30;99.90
11855;DHT22;5987;53.140;8.904;2022-12-07T16:55:46;3.30;99.90
11855;DHT22;5987;53.140;8.904;2022-12-07T16:58:52;3.40;99.90
11855;DHT22;5987;53.140;8.904;2022-12-07T17:01:56;3.40;99.90
11855;DHT22;5987;53.140;8.904;2022-12-07T17:05:00;3.50;99.90
11855;DHT22;5987;53.140;8.904;2022-12-07T17:08:05;3.40;99.90
11855;DHT22;5987;53.140;8.904;2022-12-07T17:11:13;3.40;99.90
11855;DHT22;5987;53.140;8.904;2022-12-07T17:14:19;3.40;99.90
11855;DHT22;5987;53.140;8.904;2022-12-07T17:17:40;3.40;99.90
11855;DHT22;5987;53.140;8.904;2022-12-07T17:20:44;3.50;99.90
11855;DHT22;5987;53.140;8.904;2022-12-07T17:23:47;3.50;99.90
11855;DHT22;5987;53.140;8.904;2022-12-07T17:26:51;3.50;99.90
11855;DHT22;5987;53.140;8.904;2022-12-07T17:29:56;3.50;99.90
11855;DHT22;5987;53.140;8.904;2022-12-07T17:33:00;3.60;99.90
11855;DHT22;5987;53.140;8.904;2022-12-07T17:36:10;3.60;99.90
11855;DHT22;5987;53.140;8.904;2022-12-07T17:39:16;3.60;99.90
11855;DHT22;5987;53.140;8.904;2022-12-07T17:42:20;3.50;99.90
11855;DHT22;5987;53.140;8.904;2022-12-07T17:45:42;3.50;99.90
11855;DHT22;5987;53.140;8.904;2022-12-07T17:48:46;3.60;99.90
11855;DHT22;5987;53.140;8.904;2022-12-07T17:51:50;3.50;99.90
11855;DHT22;5987;53.140;8.904;2022-12-07T17:55:11;3.60;99.90
11855;DHT22;5987;53.140;8.904;2022-12-07T17:58:14;3.50;99.90
11855;DHT22;5987;53.140;8.904;2022-12-07T18:01:19;3.50;99.90
11855;DHT22;5987;53.140;8.904;2022-12-07T18:04:25;3.40;99.90
11855;DHT22;5987;53.140;8.904;2022-12-07T18:07:29;3.30;99.90
11855;DHT22;5987;53.140;8.904;2022-12-07T18:10:33;3.30;99.90
11855;DHT22;5987;53.140;8.904;2022-12-07T18:13:37;3.20;99.90
11855;DHT22;5987;53.140;8.904;2022-12-07T18:16:42;3.20;99.90
11855;DHT22;5987;53.140;8.904;2022-12-07T18:19:46;3.30;99.90
11855;DHT22;5987;53.140;8.904;2022-12-07T18:22:50;3.30;99.90
11855;DHT22;5987;53.140;8.904;2022-12-07T18:25:53;3.30;99.90
11855;DHT22;5987;53.140;8.904;2022-12-07T18:28:58;3.30;99.90
11855;DHT22;5987;53.140;8.904;2022-12-07T18:32:04;3.30;99.90
11855;DHT22;5987;53.140;8.904;2022-12-07T18:35:08;3.30;99.90
11855;DHT22;5987;53.140;8.904;2022-12-07T18:38:12;3.30;99.90
11855;DHT22;5987;53.140;8.904;2022-12-07T18:41:16;3.20;99.90
11855;DHT22;5987;53.140;8.904;2022-12-07T18:44:21;3.20;99.90
11855;DHT22;5987;53.140;8.904;2022-12-07T18:47:26;3.40;99.90
11855;DHT22;5987;53.140;8.904;2022-12-07T18:50:30;3.40;99.90
11855;DHT22;5987;53.140;8.904;2022-12-07T18:53:34;3.40;99.90
11855;DHT22;5987;53.140;8.904;2022-12-07T18:56:39;3.40;99.90
11855;DHT22;5987;53.140;8.904;2022-12-07T18:59:42;3.30;99.90
11855;DHT22;5987;53.140;8.904;2022-12-07T19:02:50;3.30;99.90
11855;DHT22;5987;53.140;8.904;2022-12-07T19:05:55;3.30;99.90
11855;DHT22;5987;53.140;8.904;2022-12-07T19:08:59;3.40;99.90
11855;DHT22;5987;53.140;8.904;2022-12-07T19:12:04;3.40;99.90
11855;DHT22;5987;53.140;8.904;2022-12-07T19:15:09;3.40;99.90
11855;DHT22;5987;53.140;8.904;2022-12-07T19:18:16;3.40;99.90
11855;DHT22;5987;53.140;8.904;2022-12-07T19:21:19;3.40;99.90
11855;DHT22;5987;53.140;8.904;2022-12-07T19:24:23;3.40;99.90
11855;DHT22;5987;53.140;8.904;2022-12-07T19:27:27;3.50;99.90
11855;DHT22;5987;53.140;8.904;2022-12-07T19:30:33;3.60;99.90
11855;DHT22;5987;53.140;8.904;2022-12-07T19:33:38;3.50;99.90
11855;DHT22;5987;53.140;8.904;2022-12-07T19:36:42;3.60;99.90
11855;DHT22;5987;53.140;8.904;2022-12-07T19:39:47;3.60;99.90
11855;DHT22;5987;53.140;8.904;2022-12-07T19:42:52;3.60;99.90
11855;DHT22;5987;53.140;8.904;2022-12-07T19:46:02;3.50;99.90
11855;DHT22;5987;53.140;8.904;2022-12-07T19:49:08;3.50;99.90
11855;DHT22;5987;53.140;8.904;2022-12-07T19:52:29;3.50;99.90
11855;DHT22;5987;53.140;8.904;2022-12-07T19:55:58;3.40;99.90
11855;DHT22;5987;53.140;8.904;2022-12-07T19:59:02;3.50;99.90
11855;DHT22;5987;53.140;8.904;2022-12-07T20:02:54;3.40;99.90
11855;DHT22;5987;53.140;8.904;2022-12-07T20:07:35;3.20;99.90
11855;DHT22;5987;53.140;8.904;2022-12-07T20:10:40;3.40;99.90
11855;DHT22;5987;53.140;8.904;2022-12-07T20:13:46;3.40;99.90
11855;DHT22;5987;53.140;8.904;2022-12-07T20:17:00;3.40;99.90
11855;DHT22;5987;53.140;8.904;2022-12-07T20:20:05;3.30;99.90
11855;DHT22;5987;53.140;8.904;2022-12-07T20:23:11;3.30;99.90
11855;DHT22;5987;53.140;8.904;2022-12-07T20:26:15;3.40;99.90
11855;DHT22;5987;53.140;8.904;2022-12-07T20:29:20;3.30;99.90
11855;DHT22;5987;53.140;8.904;2022-12-07T20:32:25;3.30;99.90
11855;DHT22;5987;53.140;8.904;2022-12-07T20:35:32;3.30;99.90